createdAt,value
2019-01-19T05:00:17.918Z,97.50
2019-01-19T05:02:52.712Z,97.50
2019-01-19T05:05:27.695Z,97.60
2019-01-19T05:08:02.899Z,97.80
2019-01-19T05:10:38.155Z,97.40
2019-01-19T05:13:13.372Z,97.60
2019-01-19T06:00:14.717Z,97.40
2019-01-19T06:02:49.783Z,97.30
2019-01-19T06:05:24.953Z,97.40
2019-01-19T06:07:59.853Z,97.50
2019-01-19T06:10:35.123Z,97.40
2019-01-19T06:13:10.316Z,97.30
2019-01-19T07:01:08.408Z,97.30
2019-01-19T07:03:43.549Z,97.60
2019-01-19T07:06:18.563Z,97.70
2019-01-19T07:08:53.683Z,97.70
2019-01-19T07:11:29.547Z,97.50
2019-01-19T07:14:04.659Z,97.70
2019-01-19T08:01:46.517Z,97.40
2019-01-19T08:04:09.003Z,97.50
2019-01-19T08:06:31.430Z,97.60
2019-01-19T08:08:53.874Z,98.00
2019-01-19T08:11:35.878Z,97.70
2019-01-19T08:14:11.279Z,97.60
2019-01-19T09:01:41.471Z,93.30
2019-01-19T09:04:04.111Z,93.30
2019-01-19T09:06:26.627Z,93.60
2019-01-19T09:08:49.170Z,93.80
2019-01-19T09:11:31.083Z,93.20
2019-01-19T09:14:05.985Z,93.30
2019-01-19T10:01:40.139Z,90.80
2019-01-19T10:04:15.073Z,90.20
2019-01-19T10:06:53.990Z,90.00
2019-01-19T10:09:29.190Z,89.20
2019-01-19T10:12:04.083Z,89.70
2019-01-19T10:14:39.632Z,88.40
2019-01-19T11:00:15.887Z,86.60
2019-01-19T11:02:38.646Z,86.50
2019-01-19T11:05:01.452Z,87.30
2019-01-19T11:07:25.356Z,86.70
2019-01-19T11:09:49.310Z,85.70
2019-01-19T11:12:11.797Z,86.10
2019-01-19T11:14:34.251Z,85.80
2019-01-19T12:01:26.411Z,85.70
2019-01-19T12:03:49.001Z,85.50
2019-01-19T12:06:11.665Z,84.90
2019-01-19T12:08:34.191Z,85.30
2019-01-19T12:10:56.648Z,85.10
2019-01-19T12:13:19.182Z,85.00
2019-01-19T13:01:12.582Z,84.50
2019-01-19T13:03:35.044Z,85.00
2019-01-19T13:06:11.850Z,85.10
2019-01-19T13:08:34.743Z,84.70
2019-01-19T13:11:42.031Z,84.60
2019-01-19T13:14:04.614Z,84.00
2019-01-19T14:01:24.190Z,84.30
2019-01-19T14:04:25.424Z,84.70
2019-01-19T14:07:32.535Z,84.60
2019-01-19T14:10:34.083Z,84.20
2019-01-19T14:13:31.114Z,82.90
2019-01-19T15:02:22.200Z,83.60
2019-01-19T15:05:12.391Z,84.00
2019-01-19T15:07:51.298Z,82.70
2019-01-19T15:10:30.654Z,83.60
2019-01-19T15:13:29.431Z,83.40
2019-01-19T16:02:49.284Z,86.10
2019-01-19T16:05:24.159Z,86.30
2019-01-19T16:07:59.266Z,86.10
2019-01-19T16:10:35.054Z,86.00
2019-01-19T16:13:09.784Z,86.30
2019-01-19T17:02:25.767Z,87.10
2019-01-19T17:05:00.890Z,87.60
2019-01-19T17:07:36.340Z,87.50
2019-01-19T17:10:10.999Z,87.80
2019-01-19T17:12:45.915Z,88.10
2019-01-19T18:02:46.711Z,91.80
2019-01-19T18:05:21.876Z,91.90
2019-01-19T18:07:56.911Z,92.00
2019-01-19T18:10:31.999Z,92.10
2019-01-19T18:13:06.951Z,92.20
2019-01-19T18:32:49.578Z,93.00
2019-01-19T18:35:38.939Z,92.80
2019-01-19T18:38:40.422Z,92.80
2019-01-19T18:43:50.173Z,92.90
2019-01-19T18:46:25.164Z,93.10
2019-01-19T18:49:01.255Z,93.20
2019-01-19T18:51:36.204Z,93.30
2019-01-19T18:54:11.212Z,93.40
2019-01-19T18:56:46.371Z,93.40
2019-01-19T18:59:21.327Z,93.30
2019-01-19T19:01:57.087Z,93.50
2019-01-19T19:04:32.126Z,93.40
2019-01-19T19:07:12.199Z,93.60
2019-01-19T19:09:48.034Z,93.50
2019-01-19T19:15:02.179Z,93.80
2019-01-19T19:17:37.297Z,93.80
2019-01-19T19:20:13.261Z,93.90
2019-01-19T19:22:49.222Z,94.00
2019-01-19T19:25:24.211Z,94.00
2019-01-19T19:27:59.303Z,94.00
2019-01-19T19:30:34.276Z,94.10
2019-01-19T19:33:09.262Z,94.00
2019-01-19T19:35:44.364Z,94.10
2019-01-19T19:38:19.539Z,94.20
2019-01-19T19:40:54.445Z,94.30
2019-01-19T19:43:29.595Z,94.40
2019-01-19T19:46:04.910Z,94.70
2019-01-19T19:48:40.208Z,94.60
2019-01-19T19:51:15.395Z,94.60
2019-01-19T19:53:50.519Z,94.70
2019-01-19T19:56:25.448Z,94.70
2019-01-19T19:59:00.556Z,94.80
2019-01-19T20:01:35.907Z,94.80
2019-01-19T20:04:11.188Z,94.80
2019-01-19T20:06:49.623Z,94.90
2019-01-19T20:09:23.335Z,94.80
2019-01-19T20:12:06.987Z,94.70
2019-01-19T20:14:43.147Z,94.90
2019-01-19T20:17:18.005Z,95.00
2019-01-19T20:19:53.009Z,95.00
2019-01-19T20:22:28.802Z,95.00
2019-01-19T20:27:40.083Z,95.00
2019-01-19T20:30:15.327Z,95.10
2019-01-19T20:32:50.600Z,95.10
2019-01-19T20:35:25.438Z,95.10
2019-01-19T20:38:00.427Z,95.10
2019-01-19T20:40:35.416Z,95.20
2019-01-19T20:43:10.557Z,95.00
2019-01-19T20:45:47.818Z,95.00
2019-01-19T20:48:23.370Z,94.80
2019-01-19T20:51:00.160Z,95.00
2019-01-19T20:53:35.019Z,95.00
2019-01-19T20:56:10.007Z,95.00
2019-01-19T20:58:46.066Z,95.10
2019-01-19T21:01:21.201Z,95.20
2019-01-19T21:03:56.275Z,95.40
2019-01-19T21:06:31.354Z,95.30
2019-01-19T21:09:08.396Z,95.30
2019-01-19T21:11:43.520Z,95.50
2019-01-19T21:14:18.398Z,95.70
